x

New London Ledge Ct - Ledge Light Weather Station (ldlc3) Weather Station

6:30 - Fri 2nd Dec 2016 All times are EST. -5 hours from GMT.

  • Wind
    17mph, 22mph gusts
  • Luft Temp 48°f
  • Sea Pressure 1008.8mb
  • New London Ledge Ct - Ledge Light Weather Station
  • New London Ledge Ct - Ledge Light Weather Station

More Historic Weather Station data

Upgrade to MSW Pro to gain access to the past 30 days of data for over 8000 Wavebouys and Weather Stations around the globe.

Join Pro

Comparision Forecast

View Surf forecast
   
Fr 12/02 6:30 17 22 mph 1008.8mb 48f
6:15 16 21 mph 1008.7mb 48f
6:00 18 23 mph 1008.5mb 49f
5:45 21 26 mph 1008.5mb 49f
5:30 17 21 mph 1008.5mb 49f
5:15 16 22 mph 1008.5mb 49f
5:00 20 24 mph 1008.5mb 49f
4:15 15 20 mph 1008.4mb 50f
4:00 16 20 mph 1008.3mb 50f
3:45 14 16 mph 1008.3mb 50f
3:30 13 15 mph 1008.3mb 50f
3:15 13 16 mph 1008.2mb 50f
3:00 14 20 mph 1008.1mb 50f
2:45 16 20 mph 1008.1mb 50f
2:30 20 24 mph 1007.9mb 50f
2:15 15 20 mph 1008mb 50f
2:00 21 26 mph 1007.9mb 50f
1:45 15 20 mph 1007.9mb 49f
1:30 17 20 mph 1008mb 48f
1:15 18 22 mph 1008.1mb 47f
1:00 18 22 mph 1008.3mb 47f
12:45 21 23 mph 1008.4mb 47f
12:30 21 23 mph 1008.5mb 47f
12:15 22 25 mph 1008.7mb 47f
12:00 21 24 mph 1008.9mb 47f
11:45 21 24 mph 1009mb 46f
11:30 22 24 mph 1009.1mb 46f
11:15 17 20 mph 1009.5mb 47f
11:00 14 17 mph 1009.6mb 46f
10:45 17 21 mph 1009.8mb 46f
10:30 18 24 mph 1010mb 46f
10:15 20 22 mph 1010.2mb 45f
10:00 21 24 mph 1010.2mb 44f
9:45 20 23 mph 1010.2mb 44f
9:30 22 25 mph 1009.9mb 44f
9:15 21 25 mph 1009.8mb 43f
9:00 18 23 mph 1009.8mb 43f
8:45 16 21 mph 1010mb 42f
8:30 16 22 mph 1010.1mb 41f
8:15 18 23 mph 1010mb 41f
8:00 18 22 mph 1010mb 41f
7:45 20 24 mph 1009.7mb 41f
7:30 20 24 mph 1009.5mb 42f
7:15 22 25 mph 1009.3mb 42f
7:00 21 24 mph 1009.3mb 42f
6:45 22 25 mph 1009.2mb 42f
6:30 20 23 mph 1009.2mb 42f
6:15 18 21 mph 1009.2mb 42f
6:00 16 21 mph 1009.2mb 42f
5:45 14 17 mph 1009.2mb 42f
5:30 14 16 mph 1009.1mb 42f
5:15 15 18 mph 1009.1mb 41f
5:00 16 20 mph 1008.8mb 42f
4:45 18 23 mph 1008.6mb 42f
4:30 17 22 mph 1008.6mb 42f
4:15 17 23 mph 1008.7mb 43f
4:00 20 24 mph 1008.5mb 43f
3:45 21 26 mph 1008.4mb 43f
3:30 23 26 mph 1008.3mb 44f
3:15 23 31 mph 1008.1mb 44f
3:00 24 29 mph 1008.2mb 44f
2:45 21 25 mph 1008.2mb 44f
2:30 24 30 mph 1008.1mb 45f
2:15 22 26 mph 1008mb 45f
2:00 20 24 mph 1008mb 44f
1:45 20 23 mph 1008mb 44f
1:30 18 23 mph 1007.9mb 44f
1:15 18 23 mph 1007.6mb 43f
1:00 16 18 mph 1007.4mb 44f
12:45 16 18 mph 1007.3mb 44f
12:30 16 20 mph 1007.1mb 44f
12:15 18 23 mph 1006.8mb 44f
12:00 18 22 mph 1006.8mb 44f
Do 12/01 6:45 24 31 mph 1004.2mb 50f
6:30 21 25 mph 1004.2mb 50f
6:15 20 24 mph 1003.9mb 50f
6:00 18 24 mph 1003.6mb 50f
5:45 23 32 mph 1003.4mb 50f
5:30 22 28 mph 1003.4mb 50f
5:15 21 25 mph 1003.3mb 50f
5:00 23 29 mph 1003.1mb 51f
4:45 24 33 mph 1002.8mb 51f
4:30 26 33 mph 1002.4mb 51f
4:15 24 30 mph 1002.2mb 52f
4:00 26 32 mph 1002mb 52f
3:45 24 31 mph 1001.8mb 53f
3:30 24 29 mph 1001.5mb 54f
3:15 24 29 mph 1001.1mb 54f
3:00 23 30 mph 1000.9mb 55f
2:45 21 25 mph 1000.7mb 55f
2:30 22 26 mph 1000.4mb 54f
2:15 25 29 mph 1000.1mb 54f
2:00 26 31 mph 1000mb 54f
12:45 23 26 mph 999.7mb 55f
12:30 22 26 mph 999.8mb 54f
12:15 22 25 mph 999.7mb 54f
12:00 18 22 mph 1000mb 54f
11:45 21 23 mph 1000.3mb 54f
11:30 21 24 mph 1000.3mb 54f
11:15 20 24 mph 1000.4mb 53f
11:00 22 25 mph 1000.4mb 53f
10:45 16 21 mph 1000.6mb 54f
10:30 22 25 mph 1000.7mb 55f
10:15 15 20 mph 1000.9mb 55f
10:00 17 21 mph 1000.8mb 55f
9:45 13 14 mph 1000.7mb 54f
9:30 13 15 mph 1000.4mb 53f
9:15 14 16 mph 1000.3mb 53f
9:00 15 18 mph 1000mb 52f
8:45 16 20 mph 999.7mb 52f
8:30 17 21 mph 999.7mb 51f
8:15 16 18 mph 999.4mb 51f
8:00 15 18 mph 998.9mb 52f
7:45 13 15 mph 998.6mb 51f
7:30 10 13 mph 998.2mb 52f
7:15 10 14 mph 997.9mb 52f
7:00 8 11 mph 997.9mb 53f
6:45 10 13 mph 997.7mb 53f
6:30 13 16 mph 997.7mb 55f
6:15 17 21 mph 997.5mb 55f
6:00 31 40 mph 997.6mb 58f
5:45 24 29 mph 996.6mb 58f
5:30 22 29 mph 996.8mb 57f
5:15 21 24 mph 996.3mb 57f
5:00 22 25 mph 996.3mb 57f
4:45 20 23 mph 996mb 57f
4:30 18 23 mph 996.1mb 57f
4:15 24 28 mph 996mb 58f
4:00 24 26 mph 996.3mb 58f
3:45 22 25 mph 995.9mb 58f
3:30 23 29 mph 996.2mb 59f
3:15 23 25 mph 996.8mb 58f
3:00 22 26 mph 996.9mb 58f
2:45 10 11 mph 997.5mb 56f
2:30 14 15 mph 997.6mb 53f
2:15 16 18 mph 997.9mb 54f
2:00 16 18 mph 998.8mb 53f
1:45 17 18 mph 999.3mb 52f
1:30 17 21 mph 999.9mb 53f
1:15 21 23 mph 1000mb 52f
1:00 20 23 mph 1000.3mb 52f
12:45 21 25 mph 1000.9mb 51f
12:30 29 33 mph 1001.1mb 51f
12:15 28 33 mph 1001.3mb 51f
12:00 24 30 mph 1002.3mb 51f
Mi 11/30 6:45 28 34 mph 1009.7mb 50f
6:15 33 38 mph 1009.1mb 50f
6:00 30 36 mph 1009.7mb 50f
5:45 28 31 mph 1010.1mb 51f
5:30 26 31 mph 1010.6mb 51f
5:15 29 36 mph 1010.1mb 52f
5:00 24 29 mph 1011.3mb 52f
4:45 29 33 mph 1010.7mb 52f
4:30 24 26 mph 1011.1mb 52f
4:15 24 29 mph 1010.9mb 52f
4:00 22 25 mph 1011.5mb 52f
3:45 23 25 mph 1011.2mb 52f
3:30 23 25 mph 1011.3mb 52f
3:15 23 25 mph 1011.3mb 53f
3:00 24 28 mph 1011.2mb 53f
2:45 23 25 mph 1011.1mb 54f
2:30 20 23 mph 1011.3mb 55f
2:15 18 22 mph 1010.6mb 55f
2:00 15 16 mph 1011.4mb 55f
1:45 14 15 mph 1011.5mb 55f
1:30 11 13 mph 1012mb 55f
1:15 8 9 mph 1012.7mb 57f
1:00 5 8 mph 1012.5mb 57f
12:45 7 9 mph 1012.4mb 56f
12:30 6 9 mph 1012.6mb 56f
12:15 8 10 mph 1012.5mb 56f
12:00 8 11 mph 1012.1mb 56f
11:45 9 11 mph 1012.2mb 55f
11:30 8 10 mph 1012.5mb 55f
11:15 8 9 mph 1012.5mb 54f
11:00 5 6 mph 1013.2mb 54f
10:45 5 6 mph 1013.5mb 53f
10:30 3 5 mph 1014.3mb 53f
10:15 3 5 mph 1014.3mb 53f
10:00 3 5 mph 1014.2mb 53f
9:45 1 2 mph 1015.1mb 53f
9:30 5
mph
1014.1mb 53f
9:15  -  1 mph 1014.3mb 53f
9:00  -  1 mph 1014.3mb 53f
8:45 2 3 mph 1014.1mb 53f
8:30 3
mph
1014.1mb 53f
8:15 5 6 mph 1014.1mb 53f
8:00 7 8 mph 1013.6mb 53f
7:45 5 6 mph 1013.6mb 53f
7:30 3
mph
1013.5mb 53f
7:15 3 5 mph 1013.5mb 53f
7:00 3
mph
1013.2mb 54f
6:45 5 6 mph 1013.1mb 55f
6:30 7
mph
1013.3mb 54f
6:15 3 5 mph 1013.2mb 54f
6:00 2 3 mph 1013.1mb 54f
5:45 9 10 mph 1013.2mb 55f
5:30 8 10 mph 1013.2mb 55f
5:15 3 5 mph 1013.1mb 55f
5:00 3 5 mph 1013.1mb 55f
4:45 7 9 mph 1012.7mb 55f
4:30 10 13 mph 1012.5mb 56f
4:15 11 13 mph 1012.2mb 56f
4:00 14 16 mph 1011.9mb 56f
3:45 14 16 mph 1011.9mb 56f
3:30 14 17 mph 1012.2mb 56f
3:15 17 18 mph 1012.2mb 55f
3:00 18 21 mph 1011.9mb 54f
2:45 20 21 mph 1011.9mb 53f
2:30 20 21 mph 1011.8mb 53f
2:15 17 20 mph 1011.5mb 53f
2:00 14 15 mph 1011.6mb 54f
1:45 11 13 mph 1011.6mb 53f
1:30 11 13 mph 1011.3mb 53f
1:15 10
mph
1011mb 54f
1:00 10 11 mph 1010.8mb 55f
12:45 13 15 mph 1010.7mb 55f
12:30 15 18 mph 1010.7mb 55f
12:15 16 17 mph 1010.7mb 55f
12:00 17 20 mph 1010.7mb 56f
Di 11/29 6:45 22 26 mph 1010mb 57f
6:30 29 33 mph 1009.8mb 57f
6:15 31 34 mph 1010.1mb 57f
6:00 29 34 mph 1010.4mb 57f
5:45 31 36 mph 1010.4mb 57f
5:30 26 30 mph 1011mb 57f
5:15 24 29 mph 1011.3mb 57f
5:00 28 32 mph 1011.3mb 57f
4:45 25 29 mph 1011.5mb 57f
4:30 32 37 mph 1011.3mb 57f
4:15 34 44 mph 1011.1mb 56f
4:00 30 34 mph 1011.3mb 56f
3:45 32 37 mph 1011.8mb 56f
3:30 30 34 mph 1012mb 56f
3:15 29 34 mph 1012.5mb 56f
3:00 28 32 mph 1013.1mb 56f
2:45 29 31 mph 1013.4mb 56f
2:30 26 30 mph 1013.6mb 55f
2:15 24 28 mph 1014.3mb 55f
2:00 25 30 mph 1014.5mb 55f
1:45 23 26 mph 1014.8mb 55f
1:30 21 25 mph 1015.2mb 55f
1:15 20 23 mph 1015.7mb 55f
1:00 21 23 mph 1016.1mb 55f
12:45 22 25 mph 1016.5mb 55f
12:30 20 22 mph 1016.9mb 55f
12:15 21 23 mph 1017.1mb 55f
12:00 21 24 mph 1017mb 55f
11:45 22 25 mph 1017.4mb 55f
11:30 22 25 mph 1017.5mb 55f
11:15 23 25 mph 1017.6mb 55f
11:00 21 25 mph 1018mb 55f
10:45 21 23 mph 1018.2mb 55f
10:30 23 26 mph 1018.5mb 55f
10:15 24 28 mph 1018.6mb 56f
10:00 21 23 mph 1018.6mb 55f
9:45 21 23 mph 1018.5mb 55f
9:30 22 25 mph 1018.5mb 55f
9:15 23 28 mph 1018.5mb 55f
9:00 21 25 mph 1018.9mb 54f
8:45 21 24 mph 1019.1mb 54f
8:30 21 25 mph 1019.4mb 54f
8:15 21 25 mph 1019.3mb 54f
8:00 18 22 mph 1019.9mb 54f
7:45 17 21 mph 1020.4mb 54f
7:30 17 20 mph 1020.1mb 54f
7:15 17 20 mph 1020.2mb 54f
7:00 16 18 mph 1020.1mb 54f
6:45 14 16 mph 1020.9mb 54f
6:30 15 17 mph 1019.8mb 53f
6:15 9 11 mph 1020mb 49f
6:00 8 10 mph 1020.2mb 48f
5:45 8 10 mph 1020.6mb 48f
5:30 11 14 mph 1020.1mb 48f
5:15 11 13 mph 1020.1mb 47f
5:00 9 10 mph 1020.7mb 46f
4:45 10 11 mph 1020.5mb 46f
4:30 9 11 mph 1020.8mb 46f
4:15 7 9 mph 1020.7mb 44f
4:00 5 7 mph 1021mb 45f
3:45 6 8 mph 1020.8mb 44f
3:30 3 6 mph 1021.4mb 43f
3:15 3 6 mph 1021mb 43f
3:00 5 7 mph 1021mb 43f
2:45 5 7 mph 1021mb 43f